sensor_id;sensor_type;location;lat;lon;timestamp;temperature;humidity
20066;DHT22;10193;48.884;9.182;2024-03-02T00:00:39;9.10;71.90
20066;DHT22;10193;48.884;9.182;2024-03-02T00:03:07;9.10;71.80
20066;DHT22;10193;48.884;9.182;2024-03-02T00:05:36;9.00;71.90
20066;DHT22;10193;48.884;9.182;2024-03-02T00:08:04;9.00;71.70
20066;DHT22;10193;48.884;9.182;2024-03-02T00:10:36;9.00;71.80
20066;DHT22;10193;48.884;9.182;2024-03-02T00:13:05;9.00;71.90
20066;DHT22;10193;48.884;9.182;2024-03-02T00:15:40;9.00;71.60
20066;DHT22;10193;48.884;9.182;2024-03-02T00:18:09;9.00;72.00
20066;DHT22;10193;48.884;9.182;2024-03-02T00:20:38;9.00;71.80
20066;DHT22;10193;48.884;9.182;2024-03-02T00:23:07;9.00;71.80
20066;DHT22;10193;48.884;9.182;2024-03-02T00:25:38;9.10;71.90
20066;DHT22;10193;48.884;9.182;2024-03-02T00:28:05;9.00;71.90
20066;DHT22;10193;48.884;9.182;2024-03-02T00:30:54;9.00;71.90
20066;DHT22;10193;48.884;9.182;2024-03-02T00:33:21;9.00;72.10
20066;DHT22;10193;48.884;9.182;2024-03-02T00:35:50;9.00;71.80
20066;DHT22;10193;48.884;9.182;2024-03-02T00:38:17;9.00;71.70
20066;DHT22;10193;48.884;9.182;2024-03-02T00:40:44;9.00;71.60
20066;DHT22;10193;48.884;9.182;2024-03-02T00:43:35;9.00;71.60
20066;DHT22;10193;48.884;9.182;2024-03-02T00:46:05;8.90;71.70
20066;DHT22;10193;48.884;9.182;2024-03-02T00:48:32;9.00;71.50
20066;DHT22;10193;48.884;9.182;2024-03-02T00:51:03;8.90;71.30
20066;DHT22;10193;48.884;9.182;2024-03-02T00:53:30;8.90;71.30
20066;DHT22;10193;48.884;9.182;2024-03-02T00:55:57;8.90;71.40
20066;DHT22;10193;48.884;9.182;2024-03-02T00:58:24;8.90;71.30
20066;DHT22;10193;48.884;9.182;2024-03-02T01:00:51;8.80;71.30
20066;DHT22;10193;48.884;9.182;2024-03-02T01:03:17;8.90;71.40
20066;DHT22;10193;48.884;9.182;2024-03-02T01:05:45;8.80;71.30
20066;DHT22;10193;48.884;9.182;2024-03-02T01:08:13;8.80;71.30
20066;DHT22;10193;48.884;9.182;2024-03-02T01:10:40;8.80;71.30
20066;DHT22;10193;48.884;9.182;2024-03-02T01:13:07;8.80;71.30
20066;DHT22;10193;48.884;9.182;2024-03-02T01:15:33;8.80;71.30
20066;DHT22;10193;48.884;9.182;2024-03-02T01:18:00;8.80;71.30
20066;DHT22;10193;48.884;9.182;2024-03-02T01:20:27;8.80;71.40
20066;DHT22;10193;48.884;9.182;2024-03-02T01:22:52;8.80;71.30
20066;DHT22;10193;48.884;9.182;2024-03-02T01:25:21;8.70;71.30
20066;DHT22;10193;48.884;9.182;2024-03-02T01:27:47;8.70;71.20
20066;DHT22;10193;48.884;9.182;2024-03-02T01:30:14;8.80;71.20
20066;DHT22;10193;48.884;9.182;2024-03-02T01:32:41;8.70;71.10
20066;DHT22;10193;48.884;9.182;2024-03-02T01:35:08;8.70;71.20
20066;DHT22;10193;48.884;9.182;2024-03-02T01:37:35;8.60;71.00
20066;DHT22;10193;48.884;9.182;2024-03-02T01:40:02;8.70;71.10
20066;DHT22;10193;48.884;9.182;2024-03-02T01:42:35;8.60;71.00
20066;DHT22;10193;48.884;9.182;2024-03-02T01:45:03;8.60;71.00
20066;DHT22;10193;48.884;9.182;2024-03-02T01:47:30;8.60;70.90
20066;DHT22;10193;48.884;9.182;2024-03-02T01:49:58;8.50;70.70
20066;DHT22;10193;48.884;9.182;2024-03-02T01:52:25;8.50;70.70
20066;DHT22;10193;48.884;9.182;2024-03-02T01:54:51;8.50;70.70
20066;DHT22;10193;48.884;9.182;2024-03-02T01:57:18;8.40;70.80
20066;DHT22;10193;48.884;9.182;2024-03-02T01:59:47;8.40;70.80
20066;DHT22;10193;48.884;9.182;2024-03-02T02:02:14;8.30;70.80
20066;DHT22;10193;48.884;9.182;2024-03-02T02:04:41;8.30;70.70
20066;DHT22;10193;48.884;9.182;2024-03-02T02:07:07;8.30;70.70
20066;DHT22;10193;48.884;9.182;2024-03-02T02:09:34;8.20;70.70
20066;DHT22;10193;48.884;9.182;2024-03-02T02:12:01;8.20;70.70
20066;DHT22;10193;48.884;9.182;2024-03-02T02:14:28;8.20;70.60
20066;DHT22;10193;48.884;9.182;2024-03-02T02:16:56;8.10;70.60
20066;DHT22;10193;48.884;9.182;2024-03-02T02:19:23;8.10;70.50
20066;DHT22;10193;48.884;9.182;2024-03-02T02:21:51;8.00;70.50
20066;DHT22;10193;48.884;9.182;2024-03-02T02:24:17;8.00;70.50
20066;DHT22;10193;48.884;9.182;2024-03-02T02:26:44;7.90;70.50
20066;DHT22;10193;48.884;9.182;2024-03-02T02:29:11;7.90;70.50
20066;DHT22;10193;48.884;9.182;2024-03-02T02:31:38;7.90;70.60
20066;DHT22;10193;48.884;9.182;2024-03-02T02:34:05;7.80;70.60
20066;DHT22;10193;48.884;9.182;2024-03-02T02:36:32;7.80;70.60
20066;DHT22;10193;48.884;9.182;2024-03-02T02:39:02;7.80;70.80
20066;DHT22;10193;48.884;9.182;2024-03-02T02:41:30;7.70;70.80
20066;DHT22;10193;48.884;9.182;2024-03-02T02:43:56;7.70;70.80
20066;DHT22;10193;48.884;9.182;2024-03-02T02:46:23;7.60;70.80
20066;DHT22;10193;48.884;9.182;2024-03-02T02:48:50;7.70;71.00
20066;DHT22;10193;48.884;9.182;2024-03-02T02:51:18;7.60;70.90
20066;DHT22;10193;48.884;9.182;2024-03-02T02:53:45;7.50;70.90
20066;DHT22;10193;48.884;9.182;2024-03-02T02:56:13;7.50;70.90
20066;DHT22;10193;48.884;9.182;2024-03-02T02:58:40;7.50;71.00
20066;DHT22;10193;48.884;9.182;2024-03-02T03:01:07;7.50;71.10
20066;DHT22;10193;48.884;9.182;2024-03-02T03:03:34;7.50;71.20
20066;DHT22;10193;48.884;9.182;2024-03-02T03:06:01;7.50;71.20
20066;DHT22;10193;48.884;9.182;2024-03-02T03:08:28;7.50;71.30
20066;DHT22;10193;48.884;9.182;2024-03-02T03:10:55;7.40;71.20
20066;DHT22;10193;48.884;9.182;2024-03-02T03:13:23;7.40;71.20
20066;DHT22;10193;48.884;9.182;2024-03-02T03:15:50;7.40;71.20
20066;DHT22;10193;48.884;9.182;2024-03-02T03:18:17;7.40;71.20
20066;DHT22;10193;48.884;9.182;2024-03-02T03:20:44;7.30;71.10
20066;DHT22;10193;48.884;9.182;2024-03-02T03:23:11;7.40;71.30
20066;DHT22;10193;48.884;9.182;2024-03-02T03:25:40;7.30;71.20
20066;DHT22;10193;48.884;9.182;2024-03-02T03:28:07;7.30;71.20
20066;DHT22;10193;48.884;9.182;2024-03-02T03:30:36;7.30;71.20
20066;DHT22;10193;48.884;9.182;2024-03-02T03:33:03;7.30;71.10
20066;DHT22;10193;48.884;9.182;2024-03-02T03:35:31;7.30;71.20
20066;DHT22;10193;48.884;9.182;2024-03-02T03:37:58;7.30;71.20
20066;DHT22;10193;48.884;9.182;2024-03-02T03:40:24;7.20;71.20
20066;DHT22;10193;48.884;9.182;2024-03-02T03:42:51;7.20;71.20
20066;DHT22;10193;48.884;9.182;2024-03-02T03:45:18;7.20;71.30
20066;DHT22;10193;48.884;9.182;2024-03-02T03:47:47;7.20;71.20
20066;DHT22;10193;48.884;9.182;2024-03-02T03:50:14;7.20;71.20
20066;DHT22;10193;48.884;9.182;2024-03-02T03:52:40;7.10;71.30
20066;DHT22;10193;48.884;9.182;2024-03-02T03:55:08;7.10;71.30
20066;DHT22;10193;48.884;9.182;2024-03-02T03:57:35;7.10;71.30
20066;DHT22;10193;48.884;9.182;2024-03-02T04:00:02;7.10;71.40
20066;DHT22;10193;48.884;9.182;2024-03-02T04:02:29;7.00;71.40
20066;DHT22;10193;48.884;9.182;2024-03-02T04:04:57;7.00;71.40
20066;DHT22;10193;48.884;9.182;2024-03-02T04:07:24;7.00;71.50
20066;DHT22;10193;48.884;9.182;2024-03-02T04:09:51;7.00;71.60
20066;DHT22;10193;48.884;9.182;2024-03-02T04:12:17;7.00;71.70
20066;DHT22;10193;48.884;9.182;2024-03-02T04:14:44;7.00;71.60
20066;DHT22;10193;48.884;9.182;2024-03-02T04:17:11;7.00;71.60
20066;DHT22;10193;48.884;9.182;2024-03-02T04:19:36;7.00;71.60
20066;DHT22;10193;48.884;9.182;2024-03-02T04:22:04;7.00;71.50
20066;DHT22;10193;48.884;9.182;2024-03-02T04:24:31;7.00;71.50
20066;DHT22;10193;48.884;9.182;2024-03-02T04:26:58;6.90;71.30
20066;DHT22;10193;48.884;9.182;2024-03-02T04:29:24;6.90;71.30
20066;DHT22;10193;48.884;9.182;2024-03-02T04:31:51;6.90;71.40
20066;DHT22;10193;48.884;9.182;2024-03-02T04:34:18;6.90;71.50
20066;DHT22;10193;48.884;9.182;2024-03-02T04:36:44;6.80;71.50
20066;DHT22;10193;48.884;9.182;2024-03-02T04:39:12;6.80;71.50
20066;DHT22;10193;48.884;9.182;2024-03-02T04:41:39;6.80;71.60
20066;DHT22;10193;48.884;9.182;2024-03-02T04:44:05;6.80;71.70
20066;DHT22;10193;48.884;9.182;2024-03-02T04:46:33;6.80;71.80
20066;DHT22;10193;48.884;9.182;2024-03-02T04:49:00;6.80;71.80
20066;DHT22;10193;48.884;9.182;2024-03-02T04:51:26;6.80;71.80
20066;DHT22;10193;48.884;9.182;2024-03-02T04:53:53;6.80;71.80
20066;DHT22;10193;48.884;9.182;2024-03-02T04:56:21;6.80;71.80
20066;DHT22;10193;48.884;9.182;2024-03-02T04:59:05;6.70;71.60
20066;DHT22;10193;48.884;9.182;2024-03-02T05:01:32;6.70;71.60
20066;DHT22;10193;48.884;9.182;2024-03-02T05:03:59;6.70;71.80
20066;DHT22;10193;48.884;9.182;2024-03-02T05:06:26;6.70;71.80
20066;DHT22;10193;48.884;9.182;2024-03-02T05:08:53;6.70;71.80
20066;DHT22;10193;48.884;9.182;2024-03-02T05:11:21;6.70;71.80
20066;DHT22;10193;48.884;9.182;2024-03-02T05:14:18;6.70;71.80
20066;DHT22;10193;48.884;9.182;2024-03-02T05:16:45;6.70;71.80
20066;DHT22;10193;48.884;9.182;2024-03-02T05:19:11;6.70;71.90
20066;DHT22;10193;48.884;9.182;2024-03-02T05:21:38;6.70;71.80
20066;DHT22;10193;48.884;9.182;2024-03-02T05:24:05;6.70;71.80
20066;DHT22;10193;48.884;9.182;2024-03-02T05:26:33;6.60;71.70
20066;DHT22;10193;48.884;9.182;2024-03-02T05:29:00;6.60;71.70
20066;DHT22;10193;48.884;9.182;2024-03-02T05:31:25;6.60;71.70
20066;DHT22;10193;48.884;9.182;2024-03-02T05:33:52;6.60;71.70
20066;DHT22;10193;48.884;9.182;2024-03-02T05:36:19;6.50;71.50
20066;DHT22;10193;48.884;9.182;2024-03-02T05:38:46;6.50;71.60
20066;DHT22;10193;48.884;9.182;2024-03-02T05:41:12;6.50;71.60
20066;DHT22;10193;48.884;9.182;2024-03-02T05:43:41;6.50;71.60
20066;DHT22;10193;48.884;9.182;2024-03-02T05:46:07;6.40;71.50
20066;DHT22;10193;48.884;9.182;2024-03-02T05:48:34;6.40;71.70
20066;DHT22;10193;48.884;9.182;2024-03-02T05:51:01;6.40;71.80
20066;DHT22;10193;48.884;9.182;2024-03-02T05:53:27;6.40;71.80
20066;DHT22;10193;48.884;9.182;2024-03-02T05:55:54;6.40;71.80
20066;DHT22;10193;48.884;9.182;2024-03-02T05:58:21;6.40;71.80
20066;DHT22;10193;48.884;9.182;2024-03-02T06:01:00;6.40;71.90
20066;DHT22;10193;48.884;9.182;2024-03-02T06:03:27;6.30;71.70
20066;DHT22;10193;48.884;9.182;2024-03-02T06:05:54;6.30;71.90
20066;DHT22;10193;48.884;9.182;2024-03-02T06:08:21;6.30;72.00
20066;DHT22;10193;48.884;9.182;2024-03-02T06:10:47;6.30;72.10
20066;DHT22;10193;48.884;9.182;2024-03-02T06:13:14;6.30;72.10
20066;DHT22;10193;48.884;9.182;2024-03-02T06:15:41;6.30;72.10
20066;DHT22;10193;48.884;9.182;2024-03-02T06:18:09;6.30;72.20
20066;DHT22;10193;48.884;9.182;2024-03-02T06:20:36;6.30;72.20
20066;DHT22;10193;48.884;9.182;2024-03-02T06:23:03;6.30;72.10
20066;DHT22;10193;48.884;9.182;2024-03-02T06:25:30;6.30;72.20
20066;DHT22;10193;48.884;9.182;2024-03-02T06:27:56;6.30;72.20
20066;DHT22;10193;48.884;9.182;2024-03-02T06:30:22;6.30;72.40
20066;DHT22;10193;48.884;9.182;2024-03-02T06:32:49;6.30;72.40
20066;DHT22;10193;48.884;9.182;2024-03-02T06:35:17;6.30;72.60
20066;DHT22;10193;48.884;9.182;2024-03-02T06:37:44;6.30;72.70
20066;DHT22;10193;48.884;9.182;2024-03-02T06:40:10;6.40;72.80
20066;DHT22;10193;48.884;9.182;2024-03-02T06:42:37;6.40;72.80
20066;DHT22;10193;48.884;9.182;2024-03-02T06:45:04;6.40;72.80
20066;DHT22;10193;48.884;9.182;2024-03-02T06:47:31;6.40;73.00
20066;DHT22;10193;48.884;9.182;2024-03-02T06:49:58;6.40;73.10
20066;DHT22;10193;48.884;9.182;2024-03-02T06:52:26;6.40;73.00
20066;DHT22;10193;48.884;9.182;2024-03-02T06:54:52;6.50;73.30
20066;DHT22;10193;48.884;9.182;2024-03-02T06:57:19;6.60;74.20
20066;DHT22;10193;48.884;9.182;2024-03-02T06:59:46;6.60;73.50
20066;DHT22;10193;48.884;9.182;2024-03-02T07:02:14;6.60;73.70
20066;DHT22;10193;48.884;9.182;2024-03-02T07:04:40;6.70;73.90
20066;DHT22;10193;48.884;9.182;2024-03-02T07:07:07;6.70;73.90
20066;DHT22;10193;48.884;9.182;2024-03-02T07:09:35;6.80;73.90
20066;DHT22;10193;48.884;9.182;2024-03-02T07:12:02;6.90;74.80
20066;DHT22;10193;48.884;9.182;2024-03-02T07:14:29;6.90;74.00
20066;DHT22;10193;48.884;9.182;2024-03-02T07:17:09;7.00;74.10
20066;DHT22;10193;48.884;9.182;2024-03-02T07:19:37;7.00;74.20
20066;DHT22;10193;48.884;9.182;2024-03-02T07:22:06;7.10;74.50
20066;DHT22;10193;48.884;9.182;2024-03-02T07:24:40;7.20;74.60
20066;DHT22;10193;48.884;9.182;2024-03-02T07:27:07;7.30;75.10
20066;DHT22;10193;48.884;9.182;2024-03-02T07:29:35;7.40;75.10
20066;DHT22;10193;48.884;9.182;2024-03-02T07:32:05;7.50;75.00
20066;DHT22;10193;48.884;9.182;2024-03-02T07:34:32;7.50;74.80
20066;DHT22;10193;48.884;9.182;2024-03-02T07:37:01;7.70;74.30
20066;DHT22;10193;48.884;9.182;2024-03-02T07:39:28;7.80;75.00
20066;DHT22;10193;48.884;9.182;2024-03-02T07:41:56;7.80;74.90
20066;DHT22;10193;48.884;9.182;2024-03-02T07:44:24;7.90;75.00
20066;DHT22;10193;48.884;9.182;2024-03-02T07:47:03;8.00;74.60
20066;DHT22;10193;48.884;9.182;2024-03-02T07:49:30;8.10;74.70
20066;DHT22;10193;48.884;9.182;2024-03-02T07:51:57;8.20;74.20
20066;DHT22;10193;48.884;9.182;2024-03-02T07:54:24;8.20;74.50
20066;DHT22;10193;48.884;9.182;2024-03-02T07:56:51;8.30;74.50
20066;DHT22;10193;48.884;9.182;2024-03-02T07:59:19;8.30;74.40
20066;DHT22;10193;48.884;9.182;2024-03-02T08:01:48;8.40;74.20
20066;DHT22;10193;48.884;9.182;2024-03-02T08:04:15;8.40;74.20
20066;DHT22;10193;48.884;9.182;2024-03-02T08:06:42;8.50;74.20
20066;DHT22;10193;48.884;9.182;2024-03-02T08:09:08;8.50;74.10
20066;DHT22;10193;48.884;9.182;2024-03-02T08:11:35;8.50;74.10
20066;DHT22;10193;48.884;9.182;2024-03-02T08:14:02;8.60;74.00
20066;DHT22;10193;48.884;9.182;2024-03-02T08:16:30;8.60;73.90
20066;DHT22;10193;48.884;9.182;2024-03-02T08:18:58;8.60;73.90
20066;DHT22;10193;48.884;9.182;2024-03-02T08:21:25;8.70;73.90
20066;DHT22;10193;48.884;9.182;2024-03-02T08:23:51;8.70;73.90
20066;DHT22;10193;48.884;9.182;2024-03-02T08:26:18;8.70;73.80
20066;DHT22;10193;48.884;9.182;2024-03-02T08:28:45;8.70;73.90
20066;DHT22;10193;48.884;9.182;2024-03-02T08:31:12;8.80;73.90
20066;DHT22;10193;48.884;9.182;2024-03-02T08:33:40;8.80;73.90
20066;DHT22;10193;48.884;9.182;2024-03-02T08:36:08;8.80;73.90
20066;DHT22;10193;48.884;9.182;2024-03-02T08:38:35;8.90;74.00
20066;DHT22;10193;48.884;9.182;2024-03-02T08:41:02;8.90;74.10
20066;DHT22;10193;48.884;9.182;2024-03-02T08:43:29;9.00;74.30
20066;DHT22;10193;48.884;9.182;2024-03-02T08:45:56;9.00;74.40
20066;DHT22;10193;48.884;9.182;2024-03-02T08:48:22;9.10;74.40
20066;DHT22;10193;48.884;9.182;2024-03-02T08:50:50;9.20;74.60
20066;DHT22;10193;48.884;9.182;2024-03-02T08:53:18;9.20;74.60
20066;DHT22;10193;48.884;9.182;2024-03-02T08:55:45;9.30;74.70
20066;DHT22;10193;48.884;9.182;2024-03-02T08:58:12;9.40;74.70
20066;DHT22;10193;48.884;9.182;2024-03-02T09:00:39;9.50;74.80
20066;DHT22;10193;48.884;9.182;2024-03-02T09:03:06;9.60;74.80
20066;DHT22;10193;48.884;9.182;2024-03-02T09:05:32;9.70;74.90
20066;DHT22;10193;48.884;9.182;2024-03-02T09:08:00;9.80;74.80
20066;DHT22;10193;48.884;9.182;2024-03-02T09:10:29;9.90;74.60
20066;DHT22;10193;48.884;9.182;2024-03-02T09:12:55;10.00;73.30
20066;DHT22;10193;48.884;9.182;2024-03-02T09:15:22;10.10;73.20
20066;DHT22;10193;48.884;9.182;2024-03-02T09:17:49;10.20;73.00
20066;DHT22;10193;48.884;9.182;2024-03-02T09:20:15;10.30;73.00
20066;DHT22;10193;48.884;9.182;2024-03-02T09:22:42;10.30;72.70
20066;DHT22;10193;48.884;9.182;2024-03-02T09:25:10;10.40;72.60
20066;DHT22;10193;48.884;9.182;2024-03-02T09:27:37;10.50;72.50
20066;DHT22;10193;48.884;9.182;2024-03-02T09:30:04;10.60;72.40
20066;DHT22;10193;48.884;9.182;2024-03-02T09:32:31;10.70;72.30
20066;DHT22;10193;48.884;9.182;2024-03-02T09:34:58;10.70;72.10
20066;DHT22;10193;48.884;9.182;2024-03-02T09:37:25;10.80;72.00
20066;DHT22;10193;48.884;9.182;2024-03-02T09:39:53;10.90;72.00
20066;DHT22;10193;48.884;9.182;2024-03-02T09:42:21;11.00;71.90
20066;DHT22;10193;48.884;9.182;2024-03-02T09:44:48;11.10;71.80
20066;DHT22;10193;48.884;9.182;2024-03-02T09:47:15;11.10;71.60
20066;DHT22;10193;48.884;9.182;2024-03-02T09:49:42;11.20;71.60
20066;DHT22;10193;48.884;9.182;2024-03-02T09:52:10;11.30;71.60
20066;DHT22;10193;48.884;9.182;2024-03-02T09:54:37;11.40;71.50
20066;DHT22;10193;48.884;9.182;2024-03-02T09:57:04;11.50;71.50
20066;DHT22;10193;48.884;9.182;2024-03-02T09:59:32;11.50;71.20
20066;DHT22;10193;48.884;9.182;2024-03-02T10:02:00;11.60;71.00
20066;DHT22;10193;48.884;9.182;2024-03-02T10:04:28;11.70;71.10
20066;DHT22;10193;48.884;9.182;2024-03-02T10:07:12;11.70;70.60
20066;DHT22;10193;48.884;9.182;2024-03-02T10:09:40;11.80;69.90
20066;DHT22;10193;48.884;9.182;2024-03-02T10:12:08;11.90;70.50
20066;DHT22;10193;48.884;9.182;2024-03-02T10:14:37;11.90;70.30
20066;DHT22;10193;48.884;9.182;2024-03-02T10:17:04;12.00;70.00
20066;DHT22;10193;48.884;9.182;2024-03-02T10:19:32;12.00;70.10
20066;DHT22;10193;48.884;9.182;2024-03-02T10:22:01;12.10;70.10
20066;DHT22;10193;48.884;9.182;2024-03-02T10:24:35;12.10;70.20
20066;DHT22;10193;48.884;9.182;2024-03-02T10:27:07;12.20;69.80
20066;DHT22;10193;48.884;9.182;2024-03-02T10:29:38;12.20;69.90
20066;DHT22;10193;48.884;9.182;2024-03-02T10:32:05;12.30;70.00
20066;DHT22;10193;48.884;9.182;2024-03-02T10:34:33;12.40;70.10
20066;DHT22;10193;48.884;9.182;2024-03-02T10:36:59;12.50;70.00
20066;DHT22;10193;48.884;9.182;2024-03-02T10:39:26;12.60;69.80
20066;DHT22;10193;48.884;9.182;2024-03-02T10:41:53;12.60;69.60
20066;DHT22;10193;48.884;9.182;2024-03-02T10:44:22;12.70;69.60
20066;DHT22;10193;48.884;9.182;2024-03-02T10:46:51;12.70;69.30
20066;DHT22;10193;48.884;9.182;2024-03-02T10:49:19;12.80;69.10
20066;DHT22;10193;48.884;9.182;2024-03-02T10:51:47;12.90;69.30
20066;DHT22;10193;48.884;9.182;2024-03-02T10:54:14;13.00;69.80
20066;DHT22;10193;48.884;9.182;2024-03-02T10:56:42;13.00;68.90
20066;DHT22;10193;48.884;9.182;2024-03-02T10:59:17;13.10;68.80
20066;DHT22;10193;48.884;9.182;2024-03-02T11:01:47;13.10;68.30
20066;DHT22;10193;48.884;9.182;2024-03-02T11:04:18;13.20;68.70
20066;DHT22;10193;48.884;9.182;2024-03-02T11:06:50;13.30;68.30
20066;DHT22;10193;48.884;9.182;2024-03-02T11:09:19;13.30;68.20
20066;DHT22;10193;48.884;9.182;2024-03-02T11:11:53;13.40;68.30
20066;DHT22;10193;48.884;9.182;2024-03-02T11:14:23;13.50;68.20
20066;DHT22;10193;48.884;9.182;2024-03-02T11:16:51;13.50;68.20
20066;DHT22;10193;48.884;9.182;2024-03-02T11:19:21;13.60;68.00
20066;DHT22;10193;48.884;9.182;2024-03-02T11:21:48;13.70;67.80
20066;DHT22;10193;48.884;9.182;2024-03-02T11:24:31;13.70;67.60
20066;DHT22;10193;48.884;9.182;2024-03-02T11:26:59;13.80;66.90
20066;DHT22;10193;48.884;9.182;2024-03-02T11:29:50;13.80;67.70
20066;DHT22;10193;48.884;9.182;2024-03-02T11:32:20;13.90;66.40
20066;DHT22;10193;48.884;9.182;2024-03-02T11:34:50;14.00;67.40
20066;DHT22;10193;48.884;9.182;2024-03-02T11:37:18;14.10;67.00
20066;DHT22;10193;48.884;9.182;2024-03-02T11:39:46;14.20;67.00
20066;DHT22;10193;48.884;9.182;2024-03-02T11:42:13;14.20;66.80
20066;DHT22;10193;48.884;9.182;2024-03-02T11:44:42;14.30;66.80
20066;DHT22;10193;48.884;9.182;2024-03-02T11:47:11;14.30;66.50
20066;DHT22;10193;48.884;9.182;2024-03-02T11:49:41;14.40;66.50
20066;DHT22;10193;48.884;9.182;2024-03-02T11:52:10;14.50;66.50
20066;DHT22;10193;48.884;9.182;2024-03-02T11:54:38;14.50;66.30
20066;DHT22;10193;48.884;9.182;2024-03-02T11:57:06;14.60;66.10
20066;DHT22;10193;48.884;9.182;2024-03-02T11:59:33;14.70;66.10
20066;DHT22;10193;48.884;9.182;2024-03-02T12:02:00;14.70;65.90
20066;DHT22;10193;48.884;9.182;2024-03-02T12:04:29;14.80;66.20
20066;DHT22;10193;48.884;9.182;2024-03-02T12:06:58;14.80;65.60
20066;DHT22;10193;48.884;9.182;2024-03-02T12:09:27;14.90;65.50
20066;DHT22;10193;48.884;9.182;2024-03-02T12:12:04;14.90;65.30
20066;DHT22;10193;48.884;9.182;2024-03-02T12:14:31;15.00;64.70
20066;DHT22;10193;48.884;9.182;2024-03-02T12:16:58;15.00;65.00
20066;DHT22;10193;48.884;9.182;2024-03-02T12:19:25;15.10;65.10
20066;DHT22;10193;48.884;9.182;2024-03-02T12:21:52;15.10;65.00
20066;DHT22;10193;48.884;9.182;2024-03-02T12:24:20;15.20;65.10
20066;DHT22;10193;48.884;9.182;2024-03-02T12:26:49;15.20;65.00
20066;DHT22;10193;48.884;9.182;2024-03-02T12:29:16;15.30;64.60
20066;DHT22;10193;48.884;9.182;2024-03-02T12:31:43;15.30;64.40
20066;DHT22;10193;48.884;9.182;2024-03-02T12:34:12;15.40;64.30
20066;DHT22;10193;48.884;9.182;2024-03-02T12:36:38;15.40;64.20
20066;DHT22;10193;48.884;9.182;2024-03-02T12:39:07;15.50;64.20
20066;DHT22;10193;48.884;9.182;2024-03-02T12:41:36;15.50;63.90
20066;DHT22;10193;48.884;9.182;2024-03-02T12:44:04;15.60;64.00
20066;DHT22;10193;48.884;9.182;2024-03-02T12:46:31;15.60;63.70
20066;DHT22;10193;48.884;9.182;2024-03-02T12:48:58;15.70;63.90
20066;DHT22;10193;48.884;9.182;2024-03-02T12:51:26;15.80;63.70
20066;DHT22;10193;48.884;9.182;2024-03-02T12:53:57;15.80;63.50
20066;DHT22;10193;48.884;9.182;2024-03-02T12:56:24;15.90;63.00
20066;DHT22;10193;48.884;9.182;2024-03-02T12:58:53;16.00;63.00
20066;DHT22;10193;48.884;9.182;2024-03-02T13:01:22;16.00;62.60
20066;DHT22;10193;48.884;9.182;2024-03-02T13:03:49;16.00;62.50
20066;DHT22;10193;48.884;9.182;2024-03-02T13:06:17;16.10;62.50
20066;DHT22;10193;48.884;9.182;2024-03-02T13:08:45;16.10;62.20
20066;DHT22;10193;48.884;9.182;2024-03-02T13:11:12;16.20;62.20
20066;DHT22;10193;48.884;9.182;2024-03-02T13:13:39;16.20;62.10
20066;DHT22;10193;48.884;9.182;2024-03-02T13:16:08;16.20;61.90
20066;DHT22;10193;48.884;9.182;2024-03-02T13:18:36;16.30;61.60
20066;DHT22;10193;48.884;9.182;2024-03-02T13:21:04;16.30;61.50
20066;DHT22;10193;48.884;9.182;2024-03-02T13:23:33;16.30;61.40
20066;DHT22;10193;48.884;9.182;2024-03-02T13:26:00;16.40;61.10
20066;DHT22;10193;48.884;9.182;2024-03-02T13:28:28;16.40;61.00
20066;DHT22;10193;48.884;9.182;2024-03-02T13:30:54;16.40;60.80
20066;DHT22;10193;48.884;9.182;2024-03-02T13:33:21;16.50;60.80
20066;DHT22;10193;48.884;9.182;2024-03-02T13:35:50;16.40;60.70
20066;DHT22;10193;48.884;9.182;2024-03-02T13:38:17;16.40;60.30
20066;DHT22;10193;48.884;9.182;2024-03-02T13:40:44;16.50;60.30
20066;DHT22;10193;48.884;9.182;2024-03-02T13:43:11;16.60;60.20
20066;DHT22;10193;48.884;9.182;2024-03-02T13:45:37;16.50;60.00
20066;DHT22;10193;48.884;9.182;2024-03-02T13:48:05;16.60;59.80
20066;DHT22;10193;48.884;9.182;2024-03-02T13:50:32;16.60;59.80
20066;DHT22;10193;48.884;9.182;2024-03-02T13:53:00;16.60;59.70
20066;DHT22;10193;48.884;9.182;2024-03-02T13:55:29;16.60;59.40
20066;DHT22;10193;48.884;9.182;2024-03-02T13:57:56;16.70;59.30
20066;DHT22;10193;48.884;9.182;2024-03-02T14:00:23;16.70;59.10
20066;DHT22;10193;48.884;9.182;2024-03-02T14:02:50;16.80;59.00
20066;DHT22;10193;48.884;9.182;2024-03-02T14:05:16;16.70;58.90
20066;DHT22;10193;48.884;9.182;2024-03-02T14:07:43;16.70;58.80
20066;DHT22;10193;48.884;9.182;2024-03-02T14:10:12;16.80;58.80
20066;DHT22;10193;48.884;9.182;2024-03-02T14:12:39;16.80;58.60
20066;DHT22;10193;48.884;9.182;2024-03-02T14:15:07;16.80;58.30
20066;DHT22;10193;48.884;9.182;2024-03-02T14:17:34;16.80;58.30
20066;DHT22;10193;48.884;9.182;2024-03-02T14:20:01;16.80;58.30
20066;DHT22;10193;48.884;9.182;2024-03-02T14:22:30;16.80;58.20
20066;DHT22;10193;48.884;9.182;2024-03-02T14:24:56;16.80;58.10
20066;DHT22;10193;48.884;9.182;2024-03-02T14:27:25;16.80;58.10
20066;DHT22;10193;48.884;9.182;2024-03-02T14:29:53;16.80;57.80
20066;DHT22;10193;48.884;9.182;2024-03-02T14:32:19;16.80;57.80
20066;DHT22;10193;48.884;9.182;2024-03-02T14:34:46;16.90;57.90
20066;DHT22;10193;48.884;9.182;2024-03-02T14:37:14;16.90;57.80
20066;DHT22;10193;48.884;9.182;2024-03-02T14:39:41;16.90;57.80
20066;DHT22;10193;48.884;9.182;2024-03-02T14:42:07;16.90;57.60
20066;DHT22;10193;48.884;9.182;2024-03-02T14:44:35;16.90;57.60
20066;DHT22;10193;48.884;9.182;2024-03-02T14:47:02;16.90;57.50
20066;DHT22;10193;48.884;9.182;2024-03-02T14:49:30;16.90;57.50
20066;DHT22;10193;48.884;9.182;2024-03-02T14:51:59;16.90;57.30
20066;DHT22;10193;48.884;9.182;2024-03-02T14:54:25;16.90;57.30
20066;DHT22;10193;48.884;9.182;2024-03-02T14:56:52;16.90;57.20
20066;DHT22;10193;48.884;9.182;2024-03-02T14:59:19;16.90;57.20
20066;DHT22;10193;48.884;9.182;2024-03-02T15:01:47;16.90;57.00
20066;DHT22;10193;48.884;9.182;2024-03-02T15:04:14;17.00;56.90
20066;DHT22;10193;48.884;9.182;2024-03-02T15:06:42;16.90;56.80
20066;DHT22;10193;48.884;9.182;2024-03-02T15:09:08;16.90;56.70
20066;DHT22;10193;48.884;9.182;2024-03-02T15:11:35;16.90;56.70
20066;DHT22;10193;48.884;9.182;2024-03-02T15:14:02;16.90;56.60
20066;DHT22;10193;48.884;9.182;2024-03-02T15:16:29;16.90;56.40
20066;DHT22;10193;48.884;9.182;2024-03-02T15:18:57;17.00;57.00
20066;DHT22;10193;48.884;9.182;2024-03-02T15:21:23;16.90;56.10
20066;DHT22;10193;48.884;9.182;2024-03-02T15:23:50;16.90;56.00
20066;DHT22;10193;48.884;9.182;2024-03-02T15:26:17;16.90;55.90
20066;DHT22;10193;48.884;9.182;2024-03-02T15:28:44;16.90;55.80
20066;DHT22;10193;48.884;9.182;2024-03-02T15:31:11;16.90;55.60
20066;DHT22;10193;48.884;9.182;2024-03-02T15:33:37;16.80;55.50
20066;DHT22;10193;48.884;9.182;2024-03-02T15:36:09;16.80;55.50
20066;DHT22;10193;48.884;9.182;2024-03-02T15:38:35;16.80;55.20
20066;DHT22;10193;48.884;9.182;2024-03-02T15:41:03;16.70;55.10
20066;DHT22;10193;48.884;9.182;2024-03-02T15:43:30;16.70;55.00